AirNav   Air Wisconsin pilot careers
 
 504 users online  

4B7 Schroon Lake Airport
Schroon Lake, New York, USA

GOING TO SCHROON LAKE?


FAA INFORMATION EFFECTIVE 08 NOVEMBER 2018

Location

FAA Identifier: 4B7
Lat/Long: 43-51-45.2862N / 073-44-25.9700W
43-51.754770N / 073-44.432833W
43.8625795 / -73.7405472
(estimated)
Elevation: 834.2 ft. / 254 m (estimated)
Variation: 15W (1985)
From city: 2 miles N of SCHROON LAKE, NY
Time zone: UTC -5 (UTC -4 during Daylight Saving Time)
Zip code: 12870

Airport Operations

Airport use: Open to the public
Activation date: 09/1966
Control tower: no
ARTCC: BOSTON CENTER
FSS: BURLINGTON FLIGHT SERVICE STATION
NOTAMs facility: BTV (NOTAM-D service available)
Attendance: UNATNDD, ALL DAYLIGHT HOURS
Wind indicator: yes
Segmented circle: no

Airport Communications

CTAF: 122.9

Nearby radio navigation aids

VOR radial/distance  VOR name  Freq  Var
GFLr004/31.8GLENS FALLS VORTAC110.2014W
SLKr161/37.2SARANAC LAKE VOR/DME109.2014W
RUTr315/39.8RUTLAND VOR/DME111.0015W

 
NDB name  Hdg/Dist  Freq  Var  ID
SMUTO300/35.222115WDYO -.. -.-- ---

Airport Services

Parking: tiedowns
Airframe service: NONE
Powerplant service: NONE
Bottled oxygen: NONE
Bulk oxygen: NONE

Runway Information

Runway 16/34

Dimensions: 3000 x 60 ft. / 914 x 18 m
Surface: asphalt, in excellent condition
Weight bearing capacity: 
Single wheel: 13.0
RUNWAY 16  RUNWAY 34
Traffic pattern: leftleft
Displaced threshold: 100 ft.no
Markings: basic, in good conditionbasic, in good condition
Runway end identifier lights: nono
Obstructions: 15 ft. road, 200 ft. from runway
RWY 16 HAS +15 FT ROAD, PARL TO RWY, 65 FT RIGHT. +42 FT TREE, 163 FT FM RWY, 95 FT LEFT.
62 ft. trees, 354 ft. from runway, 129 ft. left of centerline, 2:1 slope to clear
RWY 34 HAS +15 FT TRRN, 0 TO 200 FT FM RWY END, 40 FT RIGHT.

Airport Ownership and Management from official FAA records

Ownership: Publicly-owned
Owner: TOWN OF SCHROON LAKE
SCHROON LAKE, NY 12870
Phone 518-532-7737
Manager: TOWN SUPERVISOR
C/O TOWN OF SCHROON LAKE
SCHROON LAKE, NY 12870
Phone 518-532-7737
FOR SVC CALL MGR PHONE 518-532-7737 OR 532-7878.

Airport Operational Statistics

Aircraft based on the field: 1
Single engine airplanes: 1
    
Aircraft operations: avg 67/month *
75% local general aviation
25% transient general aviation
* for 12-month period ending 24 July 2018

Additional Remarks

DEBRIS FM ADJACENT LAND FILL IS OCCASIONALLY BLOWN ONTO AND ACROSS RY.
RECOMMENDED LDG RY 16, TKOF RY 34.
25 FT DROPOFF 30 FT FM RY 34 END.

Instrument Procedures

There are no published instrument procedures at 4B7.

Some nearby airports with instrument procedures:

4B6 - Ticonderoga Municipal Airport (14 nm E)
KLKP - Lake Placid Airport (26 nm N)
KGFL - Floyd Bennett Memorial Airport (32 nm S)
KSLK - Adirondack Regional Airport (37 nm NW)
KRUT - Rutland - Southern Vermont Regional Airport (40 nm SE)
 
Loc | Ops | Rwys | IFR | FBO | Links
Com | Nav | Svcs | Stats | Notes


 
Area around 4B7 (Schroon Lake Airport)
 
Road maps at: MapQuest Bing Google
 
Aerial photo
WARNING: Photo may not be current or correct
Aerial photo of 4B7 (Schroon Lake Airport)
Do you have a better or more recent aerial photo of Schroon Lake Airport that you would like to share? If so, please send us your photo.

 
Sectional chart

 
Airport distance calculator
Flying to Schroon Lake Airport? Find the distance to fly.

From to 4B7

Sunrise and sunset
Times for 20-Nov-2018
 Local
(UTC-5)
 Zulu
(UTC)
Morning civil twilight06:2611:26
Sunrise06:5711:57
Sunset16:2421:24
Evening civil twilight16:5621:56

Current date and time
Zulu (UTC)  20-Nov-2018 05:51:08
Local (UTC-5)  20-Nov-2018 00:51:08
 
METAR
K6B0 
29nm E 
200535Z AUTO 00000KT 10SM OVC015 00/M01 A2997 RMK AO2 T10031010
KGFL 
32nm S 
200453Z AUTO 00000KT 7SM OVC046 01/00 A2998 RMK AO2 SLP159 T00060000 400331022
KSLK 
38nm NW 
200451Z AUTO 00000KT 10SM FEW027 SCT060 BKN110 M05/M05 A2990 RMK AO2 SLP146 T10501050 400111050 $
KRUT 
40nm SE 
200456Z AUTO 00000KT 10SM BKN060 OVC075 00/M01 A2996 RMK AO2 SLP167 T00001011 400441022 FZRANO $
KBTV 
44nm NE 
200454Z 00000KT 10SM BKN180 M02/M03 A2999 RMK AO2 SLP158 LAST T10171033 400561017
KPBG 
49nm N 
200453Z AUTO 29005KT 10SM BKN085 M01/M03 A3000 RMK AO2 SLP161 T10111033 400611028
TAF
KGFL 
32nm S 
191735Z 1918/2018 16005KT P6SM SCT012 BKN045 FM192200 VRB03KT P6SM SCT035 OVC080 FM200600 VRB03KT P6SM VCSH SCT008 OVC035 PROB30 2006/2008 3SM -SN BKN008 OVC035 FM200800 03003KT 1 1/2SM -SN BR OVC005
KSLK 
38nm NW 
200307Z 2003/2024 00000KT P6SM OVC028 FM200800 00000KT P6SM OVC025 FM201200 VRB03KT 4SM -SHSN BR OVC015 FM201500 29005KT 2SM -SHSN BR OVC008
KRUT 
40nm SE 
200348Z 2004/2024 00000KT P6SM OVC080 FM200500 VRB03KT 5SM -SN BR OVC035 FM200800 VRB04KT 3/4SM -SN BR OVC015 FM201400 VRB04KT 1 1/2SM -SN BR OVC008 FM202200 VRB03KT 4SM -SN BR OVC012
NOTAMs
Click for the latest NOTAMs
NOTAMs are issued by the DoD/FAA and will open in a separate window not controlled by AirNav.

 

 
 

Would you like to see your business listed on this page?

 If your business provides an interesting product or service to pilots, flight crews, aircraft, or users of the Schroon Lake Airport, you should consider listing it here.  To start the listing process, click on the button below
 
Add a business
 

Other Pages about Schroon Lake Airport

Update a link
 
Copyright © AirNav, LLC. All rights reserved. Privacy Policy  Contact